createdAt,value
2022-12-12T00:01:25.784Z,97816.53
2022-12-12T00:04:27.379Z,97810.44
2022-12-12T00:07:28.973Z,97813.09
2022-12-12T00:10:30.682Z,97820.06
2022-12-12T00:13:32.558Z,97831.38
2022-12-12T00:16:35.759Z,97827.88
2022-12-12T00:19:37.534Z,97829.63
2022-12-12T00:22:39.111Z,97830.53
2022-12-12T00:25:40.885Z,97836.63
2022-12-12T00:28:42.496Z,97840.13
2022-12-12T00:31:45.641Z,97831.44
2022-12-12T00:34:47.412Z,97832.31
2022-12-12T00:37:49.209Z,97827.97
2022-12-12T00:40:54.969Z,97834.09
2022-12-12T00:43:56.766Z,97836.72
2022-12-12T00:46:59.950Z,97836.69
2022-12-12T00:50:01.938Z,97838.44
2022-12-12T00:53:03.736Z,97845.41
2022-12-12T00:56:05.604Z,97842.81
2022-12-12T00:59:07.362Z,97841.06
2022-12-12T01:02:10.797Z,97840.19
2022-12-12T01:05:12.820Z,97854.97
2022-12-12T01:08:14.744Z,97855.88
2022-12-12T01:11:17.546Z,97859.34
2022-12-12T01:14:19.240Z,97855.84
2022-12-12T01:17:22.428Z,97858.47
2022-12-12T01:20:25.331Z,97864.56
2022-12-12T01:23:27.327Z,97870.66
2022-12-12T01:26:29.064Z,97876.75
2022-12-12T01:29:30.732Z,97869.81
2022-12-12T01:32:33.851Z,97876.75
2022-12-12T01:35:35.453Z,97866.34
2022-12-12T01:38:37.172Z,97871.56
2022-12-12T01:41:38.830Z,97873.31
2022-12-12T01:44:42.083Z,97876.78
2022-12-12T01:47:45.057Z,97877.66
2022-12-12T01:50:46.773Z,97875.03
2022-12-12T01:53:50.623Z,97875.91
2022-12-12T01:56:53.272Z,97875.91
2022-12-12T01:59:55.205Z,97872.44
2022-12-12T02:02:58.257Z,97869.81
2022-12-12T02:06:02.344Z,97875.94
2022-12-12T02:09:05.111Z,97870.75
2022-12-12T02:12:06.920Z,97882.03
2022-12-12T02:15:09.098Z,97875.94
2022-12-12T02:18:16.199Z,97876.78
2022-12-12T02:21:22.763Z,97881.16
2022-12-12T02:24:35.019Z,97880.28
2022-12-12T02:27:57.608Z,97884.63
2022-12-12T02:31:13.889Z,97881.16
2022-12-12T02:34:19.537Z,97885.50
2022-12-12T02:37:27.016Z,97885.50
2022-12-12T02:40:33.935Z,97888.09
2022-12-12T02:43:38.994Z,97888.09
2022-12-12T02:46:46.910Z,97881.16
2022-12-12T02:49:50.155Z,97886.38
2022-12-12T02:52:51.881Z,97887.22
2022-12-12T02:56:01.122Z,97881.19
2022-12-12T02:59:02.702Z,97890.72
2022-12-12T03:02:23.481Z,97890.72
2022-12-12T03:06:00.372Z,97883.75
2022-12-12T03:09:07.664Z,97885.53
2022-12-12T03:12:11.505Z,97884.66
2022-12-12T03:15:16.493Z,97886.38
2022-12-12T03:18:23.627Z,97874.22
2022-12-12T03:21:29.261Z,97882.88
2022-12-12T03:24:34.369Z,97888.97
2022-12-12T03:27:39.008Z,97886.38
2022-12-12T03:30:42.899Z,97888.09
2022-12-12T03:33:47.030Z,97881.19
2022-12-12T03:36:50.464Z,97882.91
2022-12-12T03:39:55.014Z,97884.66
2022-12-12T03:42:59.564Z,97888.09
2022-12-12T03:46:06.239Z,97888.09
2022-12-12T03:49:12.643Z,97884.66
2022-12-12T03:52:16.988Z,97887.22
2022-12-12T03:55:22.472Z,97883.75
2022-12-12T03:58:27.825Z,97889.84
2022-12-12T04:01:35.425Z,97888.06
2022-12-12T04:04:41.869Z,97901.09
2022-12-12T04:07:45.267Z,97895.91
2022-12-12T04:11:08.994Z,97899.34
2022-12-12T04:14:17.385Z,97898.47
2022-12-12T04:17:22.248Z,97899.31
2022-12-12T04:20:46.095Z,97899.31
2022-12-12T04:24:01.155Z,97900.19
2022-12-12T04:27:05.092Z,97901.09
2022-12-12T04:30:07.867Z,97907.13
2022-12-12T04:33:11.676Z,97906.22
2022-12-12T04:36:16.850Z,97907.09
2022-12-12T04:39:21.505Z,97906.22
2022-12-12T04:42:25.126Z,97899.28
2022-12-12T04:45:29.013Z,97898.44
2022-12-12T04:48:35.710Z,97896.69
2022-12-12T04:51:44.101Z,97909.69
2022-12-12T04:54:48.040Z,97905.41
2022-12-12T04:57:50.692Z,97910.56
2022-12-12T05:00:57.505Z,97918.34
2022-12-12T05:04:01.537Z,97917.50
2022-12-12T05:07:07.665Z,97914.88
2022-12-12T05:10:11.777Z,97922.69
2022-12-12T05:13:15.839Z,97919.22
2022-12-12T05:16:23.679Z,97925.28
2022-12-12T05:19:25.253Z,97921.81
2022-12-12T05:22:28.242Z,97923.53
2022-12-12T05:25:29.982Z,97916.56
2022-12-12T05:28:31.638Z,97925.25
2022-12-12T05:31:33.198Z,97925.25
2022-12-12T05:34:34.947Z,97930.47
2022-12-12T05:37:38.010Z,97926.09
2022-12-12T05:40:39.627Z,97921.75
2022-12-12T05:43:41.267Z,97931.28
2022-12-12T05:46:43.001Z,97923.47
2022-12-12T05:49:44.798Z,97930.41
2022-12-12T05:52:47.998Z,97931.28
2022-12-12T05:55:50.632Z,97931.31
2022-12-12T05:58:52.272Z,97923.50
2022-12-12T06:01:53.986Z,97929.56
2022-12-12T06:04:55.877Z,97930.44
2022-12-12T06:07:58.872Z,97931.31
2022-12-12T06:11:00.708Z,97939.94
2022-12-12T06:14:02.301Z,97937.38
2022-12-12T06:17:04.059Z,97928.69
2022-12-12T06:20:06.325Z,97932.13
2022-12-12T06:23:09.441Z,97943.41
2022-12-12T06:26:12.194Z,97937.31
2022-12-12T06:29:14.842Z,97927.69
2022-12-12T06:32:16.450Z,97939.88
2022-12-12T06:35:18.397Z,97939.88
2022-12-12T06:38:21.519Z,97943.34
2022-12-12T06:41:24.089Z,97939.88
2022-12-12T06:44:25.768Z,97948.53
2022-12-12T06:47:27.496Z,97951.13
2022-12-12T06:50:29.502Z,97958.09
2022-12-12T06:53:32.660Z,97955.47
2022-12-12T06:56:34.308Z,97964.97
2022-12-12T06:59:36.143Z,97959.81
2022-12-12T07:02:37.780Z,97963.28
2022-12-12T07:05:39.386Z,97966.72
2022-12-12T07:08:42.692Z,97974.50
2022-12-12T07:11:44.345Z,97977.09
2022-12-12T07:14:45.831Z,97973.63
2022-12-12T07:17:47.364Z,97982.28
2022-12-12T07:20:48.959Z,97980.53
2022-12-12T07:23:52.118Z,97982.22
2022-12-12T07:26:54.041Z,97980.50
2022-12-12T07:29:55.682Z,97990.06
2022-12-12T07:32:57.315Z,97987.50
2022-12-12T07:36:00.128Z,97989.28
2022-12-12T07:39:03.773Z,97985.81
2022-12-12T07:42:05.383Z,97983.16
2022-12-12T07:45:08.033Z,97991.81
2022-12-12T07:48:09.724Z,97992.69
2022-12-12T07:51:11.589Z,97987.50
2022-12-12T07:54:14.626Z,97989.28
2022-12-12T07:57:16.393Z,97994.47
2022-12-12T08:00:18.935Z,97992.75
2022-12-12T08:03:20.502Z,97995.34
2022-12-12T08:06:22.698Z,97992.00
2022-12-12T08:09:25.690Z,97992.88
2022-12-12T08:12:28.737Z,97991.16
2022-12-12T08:15:30.511Z,97999.81
2022-12-12T08:18:34.881Z,97999.88
2022-12-12T08:21:36.381Z,98000.72
2022-12-12T08:24:39.383Z,98001.66
2022-12-12T08:27:41.016Z,98002.56
2022-12-12T08:30:42.620Z,98006.91
2022-12-12T08:33:44.255Z,98002.59
2022-12-12T08:36:45.927Z,98006.13
2022-12-12T08:39:52.806Z,98001.81
2022-12-12T08:42:57.032Z,98014.00
2022-12-12T08:45:59.331Z,98007.06
2022-12-12T08:49:01.024Z,98009.69
2022-12-12T08:52:06.069Z,98007.97
2022-12-12T08:55:09.375Z,98014.94
2022-12-12T08:58:10.981Z,98016.69
2022-12-12T09:01:13.179Z,98017.53
2022-12-12T09:04:14.819Z,98016.69
2022-12-12T09:07:17.721Z,98021.91
2022-12-12T09:10:20.764Z,98028.00
2022-12-12T09:13:22.328Z,98029.75
2022-12-12T09:16:26.438Z,98038.44
2022-12-12T09:19:28.211Z,98028.84
2022-12-12T09:22:29.849Z,98029.72
2022-12-12T09:25:32.864Z,98038.41
2022-12-12T09:28:34.880Z,98031.47
2022-12-12T09:31:39.476Z,98036.69
2022-12-12T09:34:41.115Z,98038.44
2022-12-12T09:37:42.701Z,98045.38
2022-12-12T09:40:49.096Z,98043.63
2022-12-12T09:43:54.529Z,98037.56
2022-12-12T09:47:00.363Z,98036.69
2022-12-12T09:50:04.392Z,98040.16
2022-12-12T09:53:10.262Z,98042.72
2022-12-12T09:56:18.284Z,98052.31
2022-12-12T09:59:22.357Z,98042.72
2022-12-12T10:02:33.995Z,98050.53
2022-12-12T10:05:40.384Z,98040.06
2022-12-12T10:08:45.456Z,98044.41
2022-12-12T10:11:53.127Z,98035.72
2022-12-12T10:14:56.316Z,98038.28
2022-12-12T10:17:59.184Z,98045.22
2022-12-12T10:21:02.973Z,98030.44
2022-12-12T10:24:08.332Z,98039.91
2022-12-12T10:27:13.039Z,98036.38
2022-12-12T10:30:16.669Z,98030.19
2022-12-12T10:33:24.907Z,98025.78
2022-12-12T10:36:41.435Z,98031.84
2022-12-12T10:39:48.205Z,98034.38
2022-12-12T10:42:54.152Z,98028.13
2022-12-12T10:46:08.935Z,98028.94
2022-12-12T10:49:13.817Z,98025.44
2022-12-12T10:52:17.573Z,98023.63
2022-12-12T10:55:21.019Z,98030.66
2022-12-12T10:58:26.437Z,98018.47
2022-12-12T11:02:07.927Z,98020.19
2022-12-12T11:04:57.654Z,98022.72
2022-12-12T11:08:01.455Z,98023.53
2022-12-12T11:11:05.823Z,98026.25
2022-12-12T11:14:22.238Z,98025.38
2022-12-12T11:17:25.812Z,98030.63
2022-12-12T11:20:28.399Z,98023.63
2022-12-12T11:23:31.374Z,98027.91
2022-12-12T11:26:38.902Z,98030.41
2022-12-12T11:29:44.588Z,98018.97
2022-12-12T11:32:47.411Z,98022.44
2022-12-12T11:35:54.807Z,98028.59
2022-12-12T11:38:57.162Z,98027.78
2022-12-12T11:42:01.003Z,98035.56
2022-12-12T11:45:05.176Z,98024.00
2022-12-12T11:48:32.131Z,98019.63
2022-12-12T11:51:35.523Z,98017.16
2022-12-12T11:54:37.064Z,98021.59
2022-12-12T11:57:48.562Z,98019.03
2022-12-12T12:00:55.558Z,98015.69
2022-12-12T12:04:10.111Z,98015.69
2022-12-12T12:07:22.842Z,98014.81
2022-12-12T12:10:32.622Z,98012.34
2022-12-12T12:13:41.212Z,98009.81
2022-12-12T12:16:51.890Z,98000.16
2022-12-12T12:19:57.090Z,97997.53
2022-12-12T12:23:05.438Z,97997.41
2022-12-12T12:26:09.111Z,97993.84
2022-12-12T12:29:25.230Z,97997.25
2022-12-12T12:32:34.294Z,98000.44
2022-12-12T12:35:42.474Z,98007.44
2022-12-12T12:38:54.610Z,97994.28
2022-12-12T12:42:05.346Z,98007.38
2022-12-12T12:45:13.143Z,98004.84
2022-12-12T12:48:19.586Z,98001.31
2022-12-12T12:51:24.575Z,97997.94
2022-12-12T12:57:36.506Z,97997.00
2022-12-12T13:00:38.621Z,97992.50
2022-12-12T13:03:45.709Z,97996.03
2022-12-12T13:06:50.718Z,97992.59
2022-12-12T13:09:54.638Z,97991.66
2022-12-12T13:12:59.037Z,97995.06
2022-12-12T13:16:04.701Z,97992.41
2022-12-12T13:19:11.490Z,97995.94
2022-12-12T13:22:17.558Z,98004.69
2022-12-12T13:25:23.385Z,97996.00
2022-12-12T13:28:27.222Z,98006.50
2022-12-12T13:31:36.280Z,98009.13
2022-12-12T13:34:41.564Z,98002.22
2022-12-12T13:37:46.918Z,98005.66
2022-12-12T13:41:09.924Z,98006.56
2022-12-12T13:44:30.902Z,97999.66
2022-12-12T13:47:55.435Z,98004.06
2022-12-12T13:51:15.623Z,98006.72
2022-12-12T13:54:44.692Z,98005.09
2022-12-12T13:58:19.464Z,98018.13
2022-12-12T14:01:32.101Z,98012.84
2022-12-12T14:04:35.437Z,98011.09
2022-12-12T14:07:37.714Z,98015.53
2022-12-12T14:10:41.661Z,98005.09
2022-12-12T14:13:45.942Z,98015.56
2022-12-12T14:16:51.955Z,98010.47
2022-12-12T14:19:55.048Z,98022.72
2022-12-12T14:23:11.598Z,98015.72
2022-12-12T14:26:40.456Z,98013.16
2022-12-12T14:29:44.142Z,98008.03
2022-12-12T14:32:50.769Z,98013.22
2022-12-12T14:35:57.026Z,98013.28
2022-12-12T14:39:06.686Z,98014.97
2022-12-12T14:42:16.880Z,98014.94
2022-12-12T14:45:30.727Z,98013.34
2022-12-12T14:48:32.862Z,98009.88
2022-12-12T14:51:35.923Z,98009.94
2022-12-12T14:54:37.837Z,98013.50
2022-12-12T14:57:40.003Z,98012.72
2022-12-12T15:00:47.691Z,98013.66
2022-12-12T15:03:49.945Z,98017.16
2022-12-12T15:06:52.397Z,98021.53
2022-12-12T15:09:54.345Z,98025.03
2022-12-12T15:12:56.356Z,98024.13
2022-12-12T15:15:59.445Z,98030.28
2022-12-12T15:19:01.847Z,98029.41
2022-12-12T15:22:03.928Z,98024.22
2022-12-12T15:25:15.982Z,98028.56
2022-12-12T15:28:20.118Z,98029.44
2022-12-12T15:31:23.274Z,98028.59
2022-12-12T15:34:29.800Z,98024.25
2022-12-12T15:37:31.982Z,98032.97
2022-12-12T15:40:34.820Z,98027.75
2022-12-12T15:43:37.334Z,98027.78
2022-12-12T15:46:40.395Z,98029.56
2022-12-12T15:49:42.896Z,98030.44
2022-12-12T15:52:45.538Z,98028.72
2022-12-12T15:55:52.564Z,98032.22
2022-12-12T15:58:58.666Z,98030.50
2022-12-12T16:02:15.075Z,98036.59
2022-12-12T16:05:24.753Z,98031.41
2022-12-12T16:08:31.712Z,98034.03
2022-12-12T16:11:39.322Z,98032.28
2022-12-12T16:14:42.764Z,98039.22
2022-12-12T16:17:57.376Z,98042.72
2022-12-12T16:21:01.002Z,98034.91
2022-12-12T16:24:10.148Z,98041.88
2022-12-12T16:27:12.172Z,98042.75
2022-12-12T16:30:14.913Z,98041.00
2022-12-12T16:33:22.843Z,98044.50
2022-12-12T16:36:25.794Z,98046.25
2022-12-12T16:39:27.582Z,98045.38
2022-12-12T16:42:29.224Z,98041.91
2022-12-12T16:45:31.040Z,98054.94
2022-12-12T16:48:33.467Z,98052.31
2022-12-12T16:51:39.540Z,98045.38
2022-12-12T16:54:41.407Z,98049.72
2022-12-12T16:57:42.958Z,98054.94
2022-12-12T17:00:45.193Z,98049.75
2022-12-12T17:03:47.122Z,98049.72
2022-12-12T17:06:53.348Z,98051.47
2022-12-12T17:09:55.048Z,98052.34
2022-12-12T17:12:57.024Z,98049.69
2022-12-12T17:15:58.733Z,98053.19
2022-12-12T17:19:00.479Z,98047.97
2022-12-12T17:22:03.880Z,98045.38
2022-12-12T17:25:06.225Z,98048.84
2022-12-12T17:28:07.845Z,98053.16
2022-12-12T17:31:09.859Z,98056.66
2022-12-12T17:34:11.556Z,98054.03
2022-12-12T17:37:14.521Z,98052.28
2022-12-12T17:40:16.658Z,98047.94
2022-12-12T17:43:19.183Z,98049.69
2022-12-12T17:46:20.879Z,98044.44
2022-12-12T17:49:22.504Z,98043.59
2022-12-12T17:52:25.650Z,98038.38
2022-12-12T17:55:51.382Z,98032.31
2022-12-12T17:58:49.819Z,98035.75
2022-12-12T18:01:54.575Z,98043.59
2022-12-12T18:04:56.266Z,98053.13
2022-12-12T18:07:59.408Z,98052.25
2022-12-12T18:11:01.033Z,98047.94
2022-12-12T18:14:06.192Z,98056.63
2022-12-12T18:17:07.883Z,98050.53
2022-12-12T18:20:10.382Z,98049.69
2022-12-12T18:23:13.325Z,98051.41
2022-12-12T18:26:21.799Z,98044.44
2022-12-12T18:29:24.232Z,98051.38
2022-12-12T18:32:25.788Z,98047.03
2022-12-12T18:35:28.761Z,98054.84
2022-12-12T18:38:32.184Z,98060.91
2022-12-12T18:41:36.447Z,98058.28
2022-12-12T18:44:38.277Z,98056.53
2022-12-12T18:47:40.080Z,98044.38
2022-12-12T18:50:41.650Z,98051.31
2022-12-12T18:53:47.045Z,98053.06
2022-12-12T18:56:49.047Z,98060.88
2022-12-12T18:59:50.607Z,98066.97
2022-12-12T19:02:52.216Z,98073.94
2022-12-12T19:05:53.862Z,98073.03
2022-12-12T19:08:56.897Z,98076.50
2022-12-12T19:12:02.344Z,98080.84
2022-12-12T19:15:20.191Z,98076.53
2022-12-12T19:18:21.775Z,98084.38
2022-12-12T19:21:24.645Z,98087.00
2022-12-12T19:24:27.685Z,98086.13
2022-12-12T19:27:31.575Z,98077.44
2022-12-12T19:30:33.779Z,98075.72
2022-12-12T19:33:35.859Z,98072.22
2022-12-12T19:36:38.049Z,98062.69
2022-12-12T19:39:41.146Z,98062.72
2022-12-12T19:42:42.868Z,98062.69
2022-12-12T19:45:44.651Z,98062.72
2022-12-12T19:48:46.687Z,98057.44
2022-12-12T19:51:48.584Z,98053.97
2022-12-12T19:54:51.610Z,98056.53
2022-12-12T19:57:53.340Z,98054.81
2022-12-12T20:00:54.928Z,98056.53
2022-12-12T20:03:57.401Z,98059.97
2022-12-12T20:06:59.139Z,98059.97
2022-12-12T20:10:02.146Z,98056.47
2022-12-12T20:13:03.888Z,98049.50
2022-12-12T20:16:06.500Z,98047.78
2022-12-12T20:19:08.305Z,98052.13
2022-12-12T20:22:10.027Z,98046.91
2022-12-12T20:25:13.140Z,98050.38
2022-12-12T20:28:15.037Z,98042.56
2022-12-12T20:31:17.767Z,98046.91
2022-12-12T20:34:22.516Z,98056.53
2022-12-12T20:37:24.429Z,98053.09
2022-12-12T20:40:29.098Z,98055.69
2022-12-12T20:43:31.040Z,98054.88
2022-12-12T20:46:33.511Z,98044.41
2022-12-12T20:49:36.274Z,98043.50
2022-12-12T20:52:37.887Z,98043.50
2022-12-12T20:55:40.978Z,98046.16
2022-12-12T20:58:43.039Z,98045.28
2022-12-12T21:01:44.833Z,98047.03
2022-12-12T21:04:46.516Z,98051.38
2022-12-12T21:07:48.412Z,98058.28
2022-12-12T21:10:51.721Z,98061.75
2022-12-12T21:13:53.756Z,98059.06
2022-12-12T21:16:56.854Z,98062.47
2022-12-12T21:20:03.174Z,98059.84
2022-12-12T21:23:07.990Z,98062.41
2022-12-12T21:26:16.709Z,98056.34
2022-12-12T21:29:20.350Z,98053.69
2022-12-12T21:32:22.244Z,98051.09
2022-12-12T21:35:24.103Z,98057.16
2022-12-12T21:38:25.781Z,98061.50
2022-12-12T21:41:28.982Z,98052.75
2022-12-12T21:44:30.605Z,98060.56
2022-12-12T21:47:32.403Z,98048.41
2022-12-12T21:50:33.954Z,98047.56
2022-12-12T21:53:35.760Z,98044.03
2022-12-12T21:56:39.385Z,98050.09
2022-12-12T21:59:41.983Z,98041.44
2022-12-12T22:02:46.985Z,98044.03
2022-12-12T22:05:51.734Z,98046.59
2022-12-12T22:08:54.948Z,98039.69
2022-12-12T22:12:04.274Z,98038.78
2022-12-12T22:15:06.444Z,98034.44
2022-12-12T22:18:08.051Z,98037.91
2022-12-12T22:21:10.434Z,98049.22
2022-12-12T22:24:12.011Z,98042.28
2022-12-12T22:27:15.325Z,98041.41
2022-12-12T22:30:17.799Z,98045.78
2022-12-12T22:33:19.368Z,98044.97
2022-12-12T22:36:24.499Z,98049.28
2022-12-12T22:39:27.649Z,98050.09
2022-12-12T22:42:30.605Z,98039.69
2022-12-12T22:45:33.951Z,98044.81
2022-12-12T22:48:35.757Z,98039.56
2022-12-12T22:51:39.864Z,98046.50
2022-12-12T22:54:41.574Z,98049.16
2022-12-12T22:57:46.467Z,98047.38
2022-12-12T23:00:48.025Z,98048.22
2022-12-12T23:03:49.710Z,98049.09
2022-12-12T23:06:51.556Z,98049.94
2022-12-12T23:09:53.320Z,98053.34
2022-12-12T23:12:56.425Z,98048.13
2022-12-12T23:15:58.263Z,98066.31
2022-12-12T23:19:00.021Z,98061.09
2022-12-12T23:22:01.781Z,98048.06
2022-12-12T23:25:03.813Z,98055.88
2022-12-12T23:28:12.191Z,98045.47
2022-12-12T23:31:16.604Z,98049.78
2022-12-12T23:34:21.008Z,98048.06
2022-12-12T23:37:23.995Z,98044.53
2022-12-12T23:40:25.640Z,98042.78
2022-12-12T23:43:30.090Z,98032.41
2022-12-12T23:46:32.408Z,98034.16
2022-12-12T23:49:34.066Z,98031.47
2022-12-12T23:52:35.707Z,98033.19
2022-12-12T23:55:37.292Z,98034.06
2022-12-12T23:58:40.236Z,98034.06
